sensor_id;sensor_type;location;lat;lon;timestamp;temperature;humidity
22035;DHT22;11181;51.002;4.356;2023-08-17T00:00:52;22.90;99.90
22035;DHT22;11181;51.002;4.356;2023-08-17T00:03:19;22.80;99.90
22035;DHT22;11181;51.002;4.356;2023-08-17T00:05:46;22.80;99.90
22035;DHT22;11181;51.002;4.356;2023-08-17T00:08:14;22.70;99.90
22035;DHT22;11181;51.002;4.356;2023-08-17T00:10:41;22.60;99.90
22035;DHT22;11181;51.002;4.356;2023-08-17T00:13:08;22.60;99.90
22035;DHT22;11181;51.002;4.356;2023-08-17T00:15:36;22.60;99.90
22035;DHT22;11181;51.002;4.356;2023-08-17T00:18:03;22.60;99.90
22035;DHT22;11181;51.002;4.356;2023-08-17T00:20:30;22.70;99.90
22035;DHT22;11181;51.002;4.356;2023-08-17T00:22:57;22.70;99.90
22035;DHT22;11181;51.002;4.356;2023-08-17T00:25:24;22.50;99.90
22035;DHT22;11181;51.002;4.356;2023-08-17T00:27:51;22.30;99.90
22035;DHT22;11181;51.002;4.356;2023-08-17T00:30:18;22.40;99.90
22035;DHT22;11181;51.002;4.356;2023-08-17T00:32:46;22.30;99.90
22035;DHT22;11181;51.002;4.356;2023-08-17T00:35:13;22.10;99.90
22035;DHT22;11181;51.002;4.356;2023-08-17T00:37:40;22.10;99.90
22035;DHT22;11181;51.002;4.356;2023-08-17T00:40:08;21.90;99.90
22035;DHT22;11181;51.002;4.356;2023-08-17T00:42:35;21.90;99.90
22035;DHT22;11181;51.002;4.356;2023-08-17T00:45:02;21.80;99.90
22035;DHT22;11181;51.002;4.356;2023-08-17T00:47:29;21.80;99.90
22035;DHT22;11181;51.002;4.356;2023-08-17T00:49:58;21.90;99.90
22035;DHT22;11181;51.002;4.356;2023-08-17T00:52:26;22.00;99.90
22035;DHT22;11181;51.002;4.356;2023-08-17T00:54:53;22.00;99.90
22035;DHT22;11181;51.002;4.356;2023-08-17T00:57:21;22.00;99.90
22035;DHT22;11181;51.002;4.356;2023-08-17T00:59:48;21.90;99.90
22035;DHT22;11181;51.002;4.356;2023-08-17T01:02:16;21.80;99.90
22035;DHT22;11181;51.002;4.356;2023-08-17T01:04:43;21.80;99.90
22035;DHT22;11181;51.002;4.356;2023-08-17T01:07:12;21.90;99.90
22035;DHT22;11181;51.002;4.356;2023-08-17T01:09:39;21.90;99.90
22035;DHT22;11181;51.002;4.356;2023-08-17T01:12:16;22.00;99.90
22035;DHT22;11181;51.002;4.356;2023-08-17T01:14:52;22.00;99.90
22035;DHT22;11181;51.002;4.356;2023-08-17T01:17:24;21.90;99.90
22035;DHT22;11181;51.002;4.356;2023-08-17T01:19:53;21.80;99.90
22035;DHT22;11181;51.002;4.356;2023-08-17T01:22:22;21.80;99.90
22035;DHT22;11181;51.002;4.356;2023-08-17T01:24:54;21.90;99.90
22035;DHT22;11181;51.002;4.356;2023-08-17T01:27:23;21.90;99.90
22035;DHT22;11181;51.002;4.356;2023-08-17T01:29:50;21.70;99.90
22035;DHT22;11181;51.002;4.356;2023-08-17T01:32:24;21.60;99.90
22035;DHT22;11181;51.002;4.356;2023-08-17T01:34:56;21.60;99.90
22035;DHT22;11181;51.002;4.356;2023-08-17T01:37:25;21.50;99.90
22035;DHT22;11181;51.002;4.356;2023-08-17T01:39:56;21.50;99.90
22035;DHT22;11181;51.002;4.356;2023-08-17T01:42:24;21.30;99.90
22035;DHT22;11181;51.002;4.356;2023-08-17T01:44:52;21.10;99.90
22035;DHT22;11181;51.002;4.356;2023-08-17T01:47:20;21.00;99.90
22035;DHT22;11181;51.002;4.356;2023-08-17T01:49:48;20.90;99.90
22035;DHT22;11181;51.002;4.356;2023-08-17T01:52:15;20.90;99.90
22035;DHT22;11181;51.002;4.356;2023-08-17T01:54:41;21.00;99.90
22035;DHT22;11181;51.002;4.356;2023-08-17T01:57:10;20.80;99.90
22035;DHT22;11181;51.002;4.356;2023-08-17T01:59:37;21.00;99.90
22035;DHT22;11181;51.002;4.356;2023-08-17T02:02:04;20.80;99.90
22035;DHT22;11181;51.002;4.356;2023-08-17T02:04:30;20.70;99.90
22035;DHT22;11181;51.002;4.356;2023-08-17T02:06:57;20.70;99.90
22035;DHT22;11181;51.002;4.356;2023-08-17T02:09:25;20.80;99.90
22035;DHT22;11181;51.002;4.356;2023-08-17T02:11:52;21.00;99.90
22035;DHT22;11181;51.002;4.356;2023-08-17T02:14:20;21.10;99.90
22035;DHT22;11181;51.002;4.356;2023-08-17T02:16:47;21.20;99.90
22035;DHT22;11181;51.002;4.356;2023-08-17T02:19:14;21.10;99.90
22035;DHT22;11181;51.002;4.356;2023-08-17T02:21:41;20.90;99.90
22035;DHT22;11181;51.002;4.356;2023-08-17T02:24:08;20.80;99.90
22035;DHT22;11181;51.002;4.356;2023-08-17T02:26:35;20.90;99.90
22035;DHT22;11181;51.002;4.356;2023-08-17T02:29:04;20.90;99.90
22035;DHT22;11181;51.002;4.356;2023-08-17T02:31:32;20.90;99.90
22035;DHT22;11181;51.002;4.356;2023-08-17T02:33:59;20.90;99.90
22035;DHT22;11181;51.002;4.356;2023-08-17T02:36:30;21.00;99.90
22035;DHT22;11181;51.002;4.356;2023-08-17T02:38:57;21.00;99.90
22035;DHT22;11181;51.002;4.356;2023-08-17T02:41:24;21.00;99.90
22035;DHT22;11181;51.002;4.356;2023-08-17T02:43:51;21.10;99.90
22035;DHT22;11181;51.002;4.356;2023-08-17T02:46:18;21.00;99.90
22035;DHT22;11181;51.002;4.356;2023-08-17T02:48:46;20.80;99.90
22035;DHT22;11181;51.002;4.356;2023-08-17T02:51:14;20.80;99.90
22035;DHT22;11181;51.002;4.356;2023-08-17T02:53:41;20.90;99.90
22035;DHT22;11181;51.002;4.356;2023-08-17T02:56:07;21.00;99.90
22035;DHT22;11181;51.002;4.356;2023-08-17T02:58:37;21.10;99.90
22035;DHT22;11181;51.002;4.356;2023-08-17T03:01:05;21.00;99.90
22035;DHT22;11181;51.002;4.356;2023-08-17T03:03:32;21.10;99.90
22035;DHT22;11181;51.002;4.356;2023-08-17T03:06:01;21.00;99.90
22035;DHT22;11181;51.002;4.356;2023-08-17T03:08:28;21.10;99.90
22035;DHT22;11181;51.002;4.356;2023-08-17T03:10:55;21.10;99.90
22035;DHT22;11181;51.002;4.356;2023-08-17T03:13:22;21.10;99.90
22035;DHT22;11181;51.002;4.356;2023-08-17T03:15:49;21.10;99.90
22035;DHT22;11181;51.002;4.356;2023-08-17T03:18:16;21.10;99.90
22035;DHT22;11181;51.002;4.356;2023-08-17T03:20:44;21.10;99.90
22035;DHT22;11181;51.002;4.356;2023-08-17T03:23:13;21.20;99.90
22035;DHT22;11181;51.002;4.356;2023-08-17T03:25:39;21.20;99.90
22035;DHT22;11181;51.002;4.356;2023-08-17T03:28:06;21.30;99.90
22035;DHT22;11181;51.002;4.356;2023-08-17T03:30:34;21.20;99.90
22035;DHT22;11181;51.002;4.356;2023-08-17T03:33:00;21.20;99.90
22035;DHT22;11181;51.002;4.356;2023-08-17T03:35:27;21.30;99.90
22035;DHT22;11181;51.002;4.356;2023-08-17T03:37:54;21.30;99.90
22035;DHT22;11181;51.002;4.356;2023-08-17T03:40:23;21.20;99.90
22035;DHT22;11181;51.002;4.356;2023-08-17T03:42:49;21.30;99.90
22035;DHT22;11181;51.002;4.356;2023-08-17T03:45:17;21.30;99.90
22035;DHT22;11181;51.002;4.356;2023-08-17T03:47:44;21.30;99.90
22035;DHT22;11181;51.002;4.356;2023-08-17T03:50:11;21.40;99.90
22035;DHT22;11181;51.002;4.356;2023-08-17T03:52:38;21.40;99.90
22035;DHT22;11181;51.002;4.356;2023-08-17T03:55:05;21.40;99.90
22035;DHT22;11181;51.002;4.356;2023-08-17T03:57:34;21.50;99.90
22035;DHT22;11181;51.002;4.356;2023-08-17T04:00:01;21.50;99.90
22035;DHT22;11181;51.002;4.356;2023-08-17T04:02:28;21.40;99.90
22035;DHT22;11181;51.002;4.356;2023-08-17T04:04:55;21.30;99.90
22035;DHT22;11181;51.002;4.356;2023-08-17T04:07:23;21.10;99.90
22035;DHT22;11181;51.002;4.356;2023-08-17T04:09:50;21.00;99.90
22035;DHT22;11181;51.002;4.356;2023-08-17T04:12:16;20.90;99.90
22035;DHT22;11181;51.002;4.356;2023-08-17T04:14:45;20.80;99.90
22035;DHT22;11181;51.002;4.356;2023-08-17T04:17:12;20.80;99.90
22035;DHT22;11181;51.002;4.356;2023-08-17T04:19:39;20.90;99.90
22035;DHT22;11181;51.002;4.356;2023-08-17T04:22:06;21.00;99.90
22035;DHT22;11181;51.002;4.356;2023-08-17T04:24:33;20.80;99.90
22035;DHT22;11181;51.002;4.356;2023-08-17T04:27:00;20.60;99.90
22035;DHT22;11181;51.002;4.356;2023-08-17T04:29:27;20.60;99.90
22035;DHT22;11181;51.002;4.356;2023-08-17T04:31:55;20.50;99.90
22035;DHT22;11181;51.002;4.356;2023-08-17T04:34:22;20.50;99.90
22035;DHT22;11181;51.002;4.356;2023-08-17T04:36:49;20.60;99.90
22035;DHT22;11181;51.002;4.356;2023-08-17T04:39:16;20.50;99.90
22035;DHT22;11181;51.002;4.356;2023-08-17T04:41:43;20.60;99.90
22035;DHT22;11181;51.002;4.356;2023-08-17T04:44:10;20.60;99.90
22035;DHT22;11181;51.002;4.356;2023-08-17T04:46:37;20.70;99.90
22035;DHT22;11181;51.002;4.356;2023-08-17T04:49:05;20.60;99.90
22035;DHT22;11181;51.002;4.356;2023-08-17T04:51:32;20.60;99.90
22035;DHT22;11181;51.002;4.356;2023-08-17T04:53:59;20.50;99.90
22035;DHT22;11181;51.002;4.356;2023-08-17T04:56:26;20.50;99.90
22035;DHT22;11181;51.002;4.356;2023-08-17T04:58:53;20.40;99.90
22035;DHT22;11181;51.002;4.356;2023-08-17T05:01:20;20.60;99.90
22035;DHT22;11181;51.002;4.356;2023-08-17T05:03:47;20.70;99.90
22035;DHT22;11181;51.002;4.356;2023-08-17T05:06:15;20.60;99.90
22035;DHT22;11181;51.002;4.356;2023-08-17T05:08:42;20.60;99.90
22035;DHT22;11181;51.002;4.356;2023-08-17T05:11:09;20.70;99.90
22035;DHT22;11181;51.002;4.356;2023-08-17T05:13:36;20.60;99.90
22035;DHT22;11181;51.002;4.356;2023-08-17T05:16:03;20.70;99.90
22035;DHT22;11181;51.002;4.356;2023-08-17T05:18:30;20.70;99.90
22035;DHT22;11181;51.002;4.356;2023-08-17T05:20:57;20.70;99.90
22035;DHT22;11181;51.002;4.356;2023-08-17T05:23:26;20.80;99.90
22035;DHT22;11181;51.002;4.356;2023-08-17T05:25:52;20.90;99.90
22035;DHT22;11181;51.002;4.356;2023-08-17T05:28:19;20.70;99.90
22035;DHT22;11181;51.002;4.356;2023-08-17T05:30:46;20.70;99.90
22035;DHT22;11181;51.002;4.356;2023-08-17T05:33:13;20.60;99.90
22035;DHT22;11181;51.002;4.356;2023-08-17T05:35:40;20.50;99.90
22035;DHT22;11181;51.002;4.356;2023-08-17T05:38:08;20.50;99.90
22035;DHT22;11181;51.002;4.356;2023-08-17T05:40:36;20.50;99.90
22035;DHT22;11181;51.002;4.356;2023-08-17T05:43:03;20.50;99.90
22035;DHT22;11181;51.002;4.356;2023-08-17T05:45:30;20.60;99.90
22035;DHT22;11181;51.002;4.356;2023-08-17T05:47:57;20.50;99.90
22035;DHT22;11181;51.002;4.356;2023-08-17T05:50:24;20.40;99.90
22035;DHT22;11181;51.002;4.356;2023-08-17T05:52:52;20.50;99.90
22035;DHT22;11181;51.002;4.356;2023-08-17T05:55:19;20.60;99.90
22035;DHT22;11181;51.002;4.356;2023-08-17T05:57:47;20.60;99.90
22035;DHT22;11181;51.002;4.356;2023-08-17T06:00:14;20.70;99.90
22035;DHT22;11181;51.002;4.356;2023-08-17T06:02:41;20.80;99.90
22035;DHT22;11181;51.002;4.356;2023-08-17T06:05:09;20.90;99.90
22035;DHT22;11181;51.002;4.356;2023-08-17T06:07:36;20.90;99.90
22035;DHT22;11181;51.002;4.356;2023-08-17T06:10:04;20.90;99.90
22035;DHT22;11181;51.002;4.356;2023-08-17T06:12:31;21.00;99.90
22035;DHT22;11181;51.002;4.356;2023-08-17T06:15:02;21.10;99.90
22035;DHT22;11181;51.002;4.356;2023-08-17T06:17:29;21.10;99.90
22035;DHT22;11181;51.002;4.356;2023-08-17T06:19:56;21.20;99.90
22035;DHT22;11181;51.002;4.356;2023-08-17T06:22:23;21.30;99.90
22035;DHT22;11181;51.002;4.356;2023-08-17T06:24:49;21.40;99.90
22035;DHT22;11181;51.002;4.356;2023-08-17T06:27:16;21.40;99.90
22035;DHT22;11181;51.002;4.356;2023-08-17T06:29:43;21.30;99.90
22035;DHT22;11181;51.002;4.356;2023-08-17T06:32:12;21.40;99.90
22035;DHT22;11181;51.002;4.356;2023-08-17T06:34:38;21.20;99.90
22035;DHT22;11181;51.002;4.356;2023-08-17T06:37:05;21.10;99.90
22035;DHT22;11181;51.002;4.356;2023-08-17T06:39:32;21.20;99.90
22035;DHT22;11181;51.002;4.356;2023-08-17T06:41:59;21.30;99.90
22035;DHT22;11181;51.002;4.356;2023-08-17T06:44:26;21.20;99.90
22035;DHT22;11181;51.002;4.356;2023-08-17T06:46:54;21.30;99.90
22035;DHT22;11181;51.002;4.356;2023-08-17T06:49:22;21.40;99.90
22035;DHT22;11181;51.002;4.356;2023-08-17T06:51:49;21.30;99.90
22035;DHT22;11181;51.002;4.356;2023-08-17T06:54:16;21.20;99.90
22035;DHT22;11181;51.002;4.356;2023-08-17T06:56:43;21.10;99.90
22035;DHT22;11181;51.002;4.356;2023-08-17T06:59:10;21.00;99.90
22035;DHT22;11181;51.002;4.356;2023-08-17T07:01:37;20.90;99.90
22035;DHT22;11181;51.002;4.356;2023-08-17T07:04:05;20.50;99.90
22035;DHT22;11181;51.002;4.356;2023-08-17T07:06:33;20.30;99.90
22035;DHT22;11181;51.002;4.356;2023-08-17T07:09:00;19.90;99.90
22035;DHT22;11181;51.002;4.356;2023-08-17T07:11:30;19.70;99.90
22035;DHT22;11181;51.002;4.356;2023-08-17T07:13:57;19.90;99.90
22035;DHT22;11181;51.002;4.356;2023-08-17T07:16:24;20.10;99.90
22035;DHT22;11181;51.002;4.356;2023-08-17T07:18:51;20.10;99.90
22035;DHT22;11181;51.002;4.356;2023-08-17T07:21:18;20.20;99.90
22035;DHT22;11181;51.002;4.356;2023-08-17T07:23:46;20.30;99.90
22035;DHT22;11181;51.002;4.356;2023-08-17T07:26:13;20.50;99.90
22035;DHT22;11181;51.002;4.356;2023-08-17T07:28:40;20.40;99.90
22035;DHT22;11181;51.002;4.356;2023-08-17T07:31:07;20.00;99.90
22035;DHT22;11181;51.002;4.356;2023-08-17T07:33:33;20.10;99.90
22035;DHT22;11181;51.002;4.356;2023-08-17T07:36:00;20.30;99.90
22035;DHT22;11181;51.002;4.356;2023-08-17T07:38:27;20.30;99.90
22035;DHT22;11181;51.002;4.356;2023-08-17T07:40:56;20.30;99.90
22035;DHT22;11181;51.002;4.356;2023-08-17T07:43:23;20.00;99.90
22035;DHT22;11181;51.002;4.356;2023-08-17T07:45:53;20.20;99.90
22035;DHT22;11181;51.002;4.356;2023-08-17T07:48:20;20.50;99.90
22035;DHT22;11181;51.002;4.356;2023-08-17T07:50:49;20.70;99.90
22035;DHT22;11181;51.002;4.356;2023-08-17T07:53:16;20.80;99.90
22035;DHT22;11181;51.002;4.356;2023-08-17T07:55:43;20.90;99.90
22035;DHT22;11181;51.002;4.356;2023-08-17T07:58:12;20.90;99.90
22035;DHT22;11181;51.002;4.356;2023-08-17T08:00:39;21.00;99.90
22035;DHT22;11181;51.002;4.356;2023-08-17T08:03:06;21.10;99.90
22035;DHT22;11181;51.002;4.356;2023-08-17T08:05:33;21.30;99.90
22035;DHT22;11181;51.002;4.356;2023-08-17T08:08:00;21.40;99.90
22035;DHT22;11181;51.002;4.356;2023-08-17T08:10:27;21.30;99.90
22035;DHT22;11181;51.002;4.356;2023-08-17T08:12:54;21.50;99.90
22035;DHT22;11181;51.002;4.356;2023-08-17T08:15:22;21.30;99.90
22035;DHT22;11181;51.002;4.356;2023-08-17T08:17:49;21.40;99.90
22035;DHT22;11181;51.002;4.356;2023-08-17T08:20:16;21.50;99.90
22035;DHT22;11181;51.002;4.356;2023-08-17T08:22:43;21.30;99.90
22035;DHT22;11181;51.002;4.356;2023-08-17T08:25:10;21.10;99.90
22035;DHT22;11181;51.002;4.356;2023-08-17T08:27:37;21.10;99.90
22035;DHT22;11181;51.002;4.356;2023-08-17T08:30:05;21.20;99.90
22035;DHT22;11181;51.002;4.356;2023-08-17T08:32:34;21.20;99.90
22035;DHT22;11181;51.002;4.356;2023-08-17T08:35:02;21.30;99.90
22035;DHT22;11181;51.002;4.356;2023-08-17T08:37:29;21.20;99.90
22035;DHT22;11181;51.002;4.356;2023-08-17T08:39:56;21.40;99.90
22035;DHT22;11181;51.002;4.356;2023-08-17T08:42:24;21.60;99.90
22035;DHT22;11181;51.002;4.356;2023-08-17T08:44:52;21.70;99.90
22035;DHT22;11181;51.002;4.356;2023-08-17T08:47:19;21.90;99.90
22035;DHT22;11181;51.002;4.356;2023-08-17T08:49:56;21.90;99.90
22035;DHT22;11181;51.002;4.356;2023-08-17T08:52:32;21.90;99.90
22035;DHT22;11181;51.002;4.356;2023-08-17T08:55:05;22.00;99.90
22035;DHT22;11181;51.002;4.356;2023-08-17T08:57:33;21.90;99.90
22035;DHT22;11181;51.002;4.356;2023-08-17T09:00:00;21.90;99.90
22035;DHT22;11181;51.002;4.356;2023-08-17T09:02:28;21.80;99.90
22035;DHT22;11181;51.002;4.356;2023-08-17T09:04:59;21.90;99.90
22035;DHT22;11181;51.002;4.356;2023-08-17T09:07:27;21.90;99.90
22035;DHT22;11181;51.002;4.356;2023-08-17T09:09:56;21.70;99.90
22035;DHT22;11181;51.002;4.356;2023-08-17T09:12:24;21.70;99.90
22035;DHT22;11181;51.002;4.356;2023-08-17T09:14:52;21.80;99.90
22035;DHT22;11181;51.002;4.356;2023-08-17T09:17:23;22.00;99.90
22035;DHT22;11181;51.002;4.356;2023-08-17T09:19:50;22.10;99.90
22035;DHT22;11181;51.002;4.356;2023-08-17T09:22:23;22.20;99.90
22035;DHT22;11181;51.002;4.356;2023-08-17T09:24:51;22.30;99.90
22035;DHT22;11181;51.002;4.356;2023-08-17T09:27:18;22.20;99.90
22035;DHT22;11181;51.002;4.356;2023-08-17T09:29:45;22.20;99.90
22035;DHT22;11181;51.002;4.356;2023-08-17T09:32:14;22.40;99.90
22035;DHT22;11181;51.002;4.356;2023-08-17T09:34:42;22.50;99.90
22035;DHT22;11181;51.002;4.356;2023-08-17T09:37:11;22.30;99.90
22035;DHT22;11181;51.002;4.356;2023-08-17T09:39:40;22.20;99.90
22035;DHT22;11181;51.002;4.356;2023-08-17T09:42:07;22.20;99.90
22035;DHT22;11181;51.002;4.356;2023-08-17T09:44:34;22.20;99.90
22035;DHT22;11181;51.002;4.356;2023-08-17T09:47:01;22.40;99.90
22035;DHT22;11181;51.002;4.356;2023-08-17T09:49:31;22.50;99.90
22035;DHT22;11181;51.002;4.356;2023-08-17T09:51:59;22.70;99.90
22035;DHT22;11181;51.002;4.356;2023-08-17T09:54:27;23.00;99.90
22035;DHT22;11181;51.002;4.356;2023-08-17T09:56:58;22.90;99.90
22035;DHT22;11181;51.002;4.356;2023-08-17T09:59:26;22.90;99.90
22035;DHT22;11181;51.002;4.356;2023-08-17T10:01:52;23.00;99.90
22035;DHT22;11181;51.002;4.356;2023-08-17T10:04:21;23.00;99.90
22035;DHT22;11181;51.002;4.356;2023-08-17T10:06:52;23.20;99.90
22035;DHT22;11181;51.002;4.356;2023-08-17T10:09:24;22.90;99.90
22035;DHT22;11181;51.002;4.356;2023-08-17T10:11:52;23.10;99.90
22035;DHT22;11181;51.002;4.356;2023-08-17T10:14:26;23.20;99.90
22035;DHT22;11181;51.002;4.356;2023-08-17T10:16:59;23.40;99.90
22035;DHT22;11181;51.002;4.356;2023-08-17T10:19:35;23.70;99.90
22035;DHT22;11181;51.002;4.356;2023-08-17T10:22:10;23.80;99.90
22035;DHT22;11181;51.002;4.356;2023-08-17T10:24:39;23.80;99.90
22035;DHT22;11181;51.002;4.356;2023-08-17T10:27:07;23.90;99.90
22035;DHT22;11181;51.002;4.356;2023-08-17T10:29:36;24.00;99.90
22035;DHT22;11181;51.002;4.356;2023-08-17T10:32:05;24.10;99.90
22035;DHT22;11181;51.002;4.356;2023-08-17T10:34:33;24.10;99.90
22035;DHT22;11181;51.002;4.356;2023-08-17T10:37:01;24.00;99.90
22035;DHT22;11181;51.002;4.356;2023-08-17T10:39:29;23.70;99.90
22035;DHT22;11181;51.002;4.356;2023-08-17T10:41:58;23.20;99.90
22035;DHT22;11181;51.002;4.356;2023-08-17T10:44:44;23.10;99.90
22035;DHT22;11181;51.002;4.356;2023-08-17T10:47:29;23.20;99.90
22035;DHT22;11181;51.002;4.356;2023-08-17T10:49:58;23.00;99.90
22035;DHT22;11181;51.002;4.356;2023-08-17T10:52:28;23.00;99.90
22035;DHT22;11181;51.002;4.356;2023-08-17T10:54:55;23.00;99.90
22035;DHT22;11181;51.002;4.356;2023-08-17T10:57:28;23.10;99.90
22035;DHT22;11181;51.002;4.356;2023-08-17T11:00:19;23.10;99.90
22035;DHT22;11181;51.002;4.356;2023-08-17T11:02:54;23.00;99.90
22035;DHT22;11181;51.002;4.356;2023-08-17T11:05:37;22.90;99.90
22035;DHT22;11181;51.002;4.356;2023-08-17T11:08:05;22.80;99.90
22035;DHT22;11181;51.002;4.356;2023-08-17T11:10:32;22.60;99.90
22035;DHT22;11181;51.002;4.356;2023-08-17T11:13:00;22.70;99.90
22035;DHT22;11181;51.002;4.356;2023-08-17T11:15:36;22.80;99.90
22035;DHT22;11181;51.002;4.356;2023-08-17T11:18:08;22.90;99.90
22035;DHT22;11181;51.002;4.356;2023-08-17T11:20:36;22.90;99.90
22035;DHT22;11181;51.002;4.356;2023-08-17T11:23:05;23.00;99.90
22035;DHT22;11181;51.002;4.356;2023-08-17T11:25:32;22.90;99.90
22035;DHT22;11181;51.002;4.356;2023-08-17T11:28:00;22.70;99.90
22035;DHT22;11181;51.002;4.356;2023-08-17T11:30:27;22.80;99.90
22035;DHT22;11181;51.002;4.356;2023-08-17T11:32:56;23.00;99.90
22035;DHT22;11181;51.002;4.356;2023-08-17T11:35:23;23.00;99.90
22035;DHT22;11181;51.002;4.356;2023-08-17T11:37:50;23.30;99.90
22035;DHT22;11181;51.002;4.356;2023-08-17T11:40:17;23.30;99.90
22035;DHT22;11181;51.002;4.356;2023-08-17T11:42:45;23.30;99.90
22035;DHT22;11181;51.002;4.356;2023-08-17T11:45:12;23.00;99.90
22035;DHT22;11181;51.002;4.356;2023-08-17T11:47:39;23.00;99.90
22035;DHT22;11181;51.002;4.356;2023-08-17T11:50:10;22.80;99.90
22035;DHT22;11181;51.002;4.356;2023-08-17T11:52:37;22.90;99.90
22035;DHT22;11181;51.002;4.356;2023-08-17T11:55:06;22.70;99.90
22035;DHT22;11181;51.002;4.356;2023-08-17T11:57:34;22.80;99.90
22035;DHT22;11181;51.002;4.356;2023-08-17T12:00:02;22.80;99.90
22035;DHT22;11181;51.002;4.356;2023-08-17T12:02:31;22.80;99.90
22035;DHT22;11181;51.002;4.356;2023-08-17T12:05:03;22.90;99.90
22035;DHT22;11181;51.002;4.356;2023-08-17T12:07:33;22.80;99.90
22035;DHT22;11181;51.002;4.356;2023-08-17T12:10:03;23.00;99.90
22035;DHT22;11181;51.002;4.356;2023-08-17T12:12:30;23.00;99.90
22035;DHT22;11181;51.002;4.356;2023-08-17T12:14:57;23.20;99.90
22035;DHT22;11181;51.002;4.356;2023-08-17T12:17:24;23.50;99.90
22035;DHT22;11181;51.002;4.356;2023-08-17T12:19:55;23.70;99.90
22035;DHT22;11181;51.002;4.356;2023-08-17T12:22:24;24.00;99.90
22035;DHT22;11181;51.002;4.356;2023-08-17T12:24:53;24.00;99.90
22035;DHT22;11181;51.002;4.356;2023-08-17T12:27:22;24.00;99.90
22035;DHT22;11181;51.002;4.356;2023-08-17T12:29:51;24.00;99.90
22035;DHT22;11181;51.002;4.356;2023-08-17T12:32:19;23.80;99.90
22035;DHT22;11181;51.002;4.356;2023-08-17T12:34:46;23.30;99.90
22035;DHT22;11181;51.002;4.356;2023-08-17T12:37:19;23.10;99.90
22035;DHT22;11181;51.002;4.356;2023-08-17T12:39:46;23.00;99.90
22035;DHT22;11181;51.002;4.356;2023-08-17T12:42:15;23.00;99.90
22035;DHT22;11181;51.002;4.356;2023-08-17T12:44:42;23.10;99.90
22035;DHT22;11181;51.002;4.356;2023-08-17T12:47:10;23.00;99.90
22035;DHT22;11181;51.002;4.356;2023-08-17T12:49:37;23.30;99.90
22035;DHT22;11181;51.002;4.356;2023-08-17T12:52:04;23.50;99.90
22035;DHT22;11181;51.002;4.356;2023-08-17T12:54:31;23.70;99.90
22035;DHT22;11181;51.002;4.356;2023-08-17T12:56:58;23.90;99.90
22035;DHT22;11181;51.002;4.356;2023-08-17T12:59:26;24.00;99.90
22035;DHT22;11181;51.002;4.356;2023-08-17T13:01:53;23.90;99.90
22035;DHT22;11181;51.002;4.356;2023-08-17T13:04:20;23.60;99.90
22035;DHT22;11181;51.002;4.356;2023-08-17T13:06:47;23.50;99.90
22035;DHT22;11181;51.002;4.356;2023-08-17T13:09:16;23.50;99.90
22035;DHT22;11181;51.002;4.356;2023-08-17T13:11:44;23.40;99.90
22035;DHT22;11181;51.002;4.356;2023-08-17T13:14:11;23.40;99.90
22035;DHT22;11181;51.002;4.356;2023-08-17T13:16:39;23.50;99.90
22035;DHT22;11181;51.002;4.356;2023-08-17T13:19:06;23.70;99.90
22035;DHT22;11181;51.002;4.356;2023-08-17T13:21:33;24.00;99.90
22035;DHT22;11181;51.002;4.356;2023-08-17T13:24:00;23.90;99.90
22035;DHT22;11181;51.002;4.356;2023-08-17T13:26:28;24.10;99.90
22035;DHT22;11181;51.002;4.356;2023-08-17T13:28:55;24.20;99.90
22035;DHT22;11181;51.002;4.356;2023-08-17T13:31:22;24.10;99.90
22035;DHT22;11181;51.002;4.356;2023-08-17T13:33:51;24.00;99.90
22035;DHT22;11181;51.002;4.356;2023-08-17T13:36:18;24.10;99.90
22035;DHT22;11181;51.002;4.356;2023-08-17T13:38:45;24.30;99.90
22035;DHT22;11181;51.002;4.356;2023-08-17T13:41:12;24.40;99.90
22035;DHT22;11181;51.002;4.356;2023-08-17T13:43:39;24.30;99.90
22035;DHT22;11181;51.002;4.356;2023-08-17T13:46:06;24.10;99.90
22035;DHT22;11181;51.002;4.356;2023-08-17T13:48:33;24.10;99.90
22035;DHT22;11181;51.002;4.356;2023-08-17T13:51:01;24.00;99.90
22035;DHT22;11181;51.002;4.356;2023-08-17T13:53:28;24.00;99.90
22035;DHT22;11181;51.002;4.356;2023-08-17T13:55:54;24.00;99.90
22035;DHT22;11181;51.002;4.356;2023-08-17T13:58:21;23.90;99.90
22035;DHT22;11181;51.002;4.356;2023-08-17T14:00:48;24.10;99.90
22035;DHT22;11181;51.002;4.356;2023-08-17T14:03:15;24.20;99.90
22035;DHT22;11181;51.002;4.356;2023-08-17T14:05:42;24.30;99.90
22035;DHT22;11181;51.002;4.356;2023-08-17T14:08:11;24.40;99.90
22035;DHT22;11181;51.002;4.356;2023-08-17T14:10:38;24.50;99.90
22035;DHT22;11181;51.002;4.356;2023-08-17T14:13:05;24.70;99.90
22035;DHT22;11181;51.002;4.356;2023-08-17T14:15:32;24.80;99.90
22035;DHT22;11181;51.002;4.356;2023-08-17T14:17:58;24.80;99.90
22035;DHT22;11181;51.002;4.356;2023-08-17T14:20:25;24.80;99.90
22035;DHT22;11181;51.002;4.356;2023-08-17T14:22:52;24.70;99.90
22035;DHT22;11181;51.002;4.356;2023-08-17T14:25:21;24.90;99.90
22035;DHT22;11181;51.002;4.356;2023-08-17T14:27:48;25.30;99.90
22035;DHT22;11181;51.002;4.356;2023-08-17T14:30:15;25.70;99.90
22035;DHT22;11181;51.002;4.356;2023-08-17T14:32:42;25.40;99.90
22035;DHT22;11181;51.002;4.356;2023-08-17T14:35:09;25.50;99.90
22035;DHT22;11181;51.002;4.356;2023-08-17T14:37:35;25.30;99.90
22035;DHT22;11181;51.002;4.356;2023-08-17T14:40:03;25.00;99.90
22035;DHT22;11181;51.002;4.356;2023-08-17T14:42:31;25.00;99.90
22035;DHT22;11181;51.002;4.356;2023-08-17T14:44:58;25.10;99.90
22035;DHT22;11181;51.002;4.356;2023-08-17T14:47:25;24.80;99.90
22035;DHT22;11181;51.002;4.356;2023-08-17T14:49:52;24.90;99.90
22035;DHT22;11181;51.002;4.356;2023-08-17T14:52:19;24.80;99.90
22035;DHT22;11181;51.002;4.356;2023-08-17T14:54:46;24.50;99.90
22035;DHT22;11181;51.002;4.356;2023-08-17T14:57:13;24.70;99.90
22035;DHT22;11181;51.002;4.356;2023-08-17T14:59:41;24.80;99.90
22035;DHT22;11181;51.002;4.356;2023-08-17T15:02:08;25.00;99.90
22035;DHT22;11181;51.002;4.356;2023-08-17T15:04:36;25.10;99.90
22035;DHT22;11181;51.002;4.356;2023-08-17T15:07:04;25.10;99.90
22035;DHT22;11181;51.002;4.356;2023-08-17T15:09:35;24.70;99.90
22035;DHT22;11181;51.002;4.356;2023-08-17T15:12:03;24.50;99.90
22035;DHT22;11181;51.002;4.356;2023-08-17T15:14:30;24.50;99.90
22035;DHT22;11181;51.002;4.356;2023-08-17T15:16:59;24.60;99.90
22035;DHT22;11181;51.002;4.356;2023-08-17T15:19:26;24.60;99.90
22035;DHT22;11181;51.002;4.356;2023-08-17T15:21:53;24.30;99.90
22035;DHT22;11181;51.002;4.356;2023-08-17T15:24:20;24.30;99.90
22035;DHT22;11181;51.002;4.356;2023-08-17T15:26:47;24.00;99.90
22035;DHT22;11181;51.002;4.356;2023-08-17T15:29:14;23.90;99.90
22035;DHT22;11181;51.002;4.356;2023-08-17T15:31:41;23.90;99.90
22035;DHT22;11181;51.002;4.356;2023-08-17T15:34:09;23.70;99.90